Time;durP1;ratioP1;P1;durP2;ratioP2;P2;SDS_P1;SDS_P2;PMS_P1;PMS_P2;Temp;Humidity;BMP_temperature;BMP_pressure;BME280_temperature;BME280_humidity;BME280_pressure;Samples;Min_cycle;Max_cycle;Signal;HPM_P1;HPM_P2
2022/02/28 00:00:25;;;;;;;;;;;6.70;87.00;;;;;;5080146;28;19947;-77
2022/02/28 00:02:51;;;;;;;;;;;6.80;86.00;;;;;;5080321;28;19915;-77
2022/02/28 00:05:17;;;;;;;;;;;6.80;86.40;;;;;;5061786;28;19912;-76
2022/02/28 00:07:43;;;;;;;;;;;6.90;86.70;;;;;;5079819;28;20011;-76
2022/02/28 00:10:09;;;;;;;;;;;6.90;87.20;;;;;;5061960;28;19914;-76
2022/02/28 00:12:34;;;;;;;;;;;7.00;87.60;;;;;;5079898;28;19955;-77
2022/02/28 00:15:00;;;;;;;;;;;7.10;87.30;;;;;;5061824;28;19958;-76
2022/02/28 00:17:26;;;;;;;;;;;7.10;86.60;;;;;;5062135;28;20771;-77
2022/02/28 00:19:52;;;;;;;;;;;7.10;86.90;;;;;;5062005;28;19920;-76
2022/02/28 00:22:18;;;;;;;;;;;7.20;87.20;;;;;;5061523;28;19908;-77
2022/02/28 00:24:43;;;;;;;;;;;7.20;87.10;;;;;;5079521;28;19955;-77
2022/02/28 00:27:09;;;;;;;;;;;7.30;87.20;;;;;;5079699;28;19909;-77
2022/02/28 00:29:34;;;;;;;;;;;7.30;86.70;;;;;;5079602;28;19912;-77
2022/02/28 00:32:00;;;;;;;;;;;7.30;85.50;;;;;;5079643;28;19912;-77
2022/02/28 00:34:26;;;;;;;;;;;7.30;84.40;;;;;;5061353;28;20351;-77
2022/02/28 00:36:51;;;;;;;;;;;7.40;83.50;;;;;;5060445;28;19992;-77
2022/02/28 00:39:17;;;;;;;;;;;7.40;83.20;;;;;;5060996;28;19924;-76
2022/02/28 00:41:43;;;;;;;;;;;7.40;82.80;;;;;;5079770;28;19916;-77
2022/02/28 00:44:08;;;;;;;;;;;7.50;82.50;;;;;;5077765;28;19921;-77
2022/02/28 00:46:35;;;;;;;;;;;7.50;83.10;;;;;;5049622;28;20444;-77
2022/02/28 00:49:01;;;;;;;;;;;7.50;83.00;;;;;;5079263;28;19908;-77
2022/02/28 00:51:26;;;;;;;;;;;7.50;83.30;;;;;;5061291;28;19913;-77
2022/02/28 00:53:52;;;;;;;;;;;7.50;83.30;;;;;;5078847;28;19912;-77
2022/02/28 00:56:18;;;;;;;;;;;7.60;82.90;;;;;;5061201;28;19908;-77
2022/02/28 00:58:43;;;;;;;;;;;7.60;82.50;;;;;;5079041;28;19916;-77
2022/02/28 01:01:09;;;;;;;;;;;7.60;83.10;;;;;;5079106;28;19909;-77
2022/02/28 01:03:35;;;;;;;;;;;7.60;83.50;;;;;;5078608;28;20014;-77
2022/02/28 01:06:00;;;;;;;;;;;7.60;83.00;;;;;;5061459;28;19967;-77
2022/02/28 01:08:26;;;;;;;;;;;7.60;83.70;;;;;;5078418;28;19920;-76
2022/02/28 01:10:52;;;;;;;;;;;7.60;83.00;;;;;;5078895;28;19983;-76
2022/02/28 01:13:18;;;;;;;;;;;7.60;82.50;;;;;;5078541;28;20290;-76
2022/02/28 01:15:43;;;;;;;;;;;7.60;82.80;;;;;;5078812;28;19915;-77
2022/02/28 01:18:09;;;;;;;;;;;7.60;82.80;;;;;;5060815;28;20352;-77
2022/02/28 01:20:35;;;;;;;;;;;7.50;83.30;;;;;;5061119;28;19915;-77
2022/02/28 01:23:01;;;;;;;;;;;7.60;82.80;;;;;;5078030;28;19915;-77
2022/02/28 01:25:27;;;;;;;;;;;7.50;82.60;;;;;;5078442;28;20011;-77
2022/02/28 01:27:52;;;;;;;;;;;7.50;82.90;;;;;;5078304;28;19947;-77
2022/02/28 01:30:18;;;;;;;;;;;7.60;83.60;;;;;;5060497;28;19908;-77
2022/02/28 01:32:44;;;;;;;;;;;7.60;83.90;;;;;;5078069;28;19912;-77
2022/02/28 01:35:10;;;;;;;;;;;7.60;84.00;;;;;;5078479;28;19908;-76
2022/02/28 01:37:36;;;;;;;;;;;7.60;84.90;;;;;;5077783;28;20379;-76
2022/02/28 01:40:03;;;;;;;;;;;7.60;85.80;;;;;;5078170;28;20260;-76
2022/02/28 01:42:29;;;;;;;;;;;7.60;86.20;;;;;;5078050;28;20476;-77
2022/02/28 01:44:54;;;;;;;;;;;7.60;86.00;;;;;;5052576;28;19921;-76
2022/02/28 01:47:20;;;;;;;;;;;7.60;85.90;;;;;;5072059;28;19915;-77
2022/02/28 01:49:46;;;;;;;;;;;7.60;85.60;;;;;;5060209;28;19970;-77
2022/02/28 01:52:13;;;;;;;;;;;7.60;85.60;;;;;;5077604;28;20346;-77
2022/02/28 01:54:40;;;;;;;;;;;7.60;86.20;;;;;;5078214;28;20011;-77
2022/02/28 01:57:06;;;;;;;;;;;7.60;86.30;;;;;;5060212;28;20447;-77
2022/02/28 01:59:31;;;;;;;;;;;7.60;86.30;;;;;;5060107;28;20441;-77
2022/02/28 02:01:57;;;;;;;;;;;7.60;85.80;;;;;;5078009;28;19999;-77
2022/02/28 02:04:23;;;;;;;;;;;7.50;85.40;;;;;;5059940;28;20007;-77
2022/02/28 02:06:49;;;;;;;;;;;7.60;85.10;;;;;;5077561;28;20046;-77
2022/02/28 02:09:16;;;;;;;;;;;7.60;85.00;;;;;;5077860;28;19963;-77
2022/02/28 02:11:41;;;;;;;;;;;7.60;85.10;;;;;;5077726;28;19920;-77
2022/02/28 02:14:07;;;;;;;;;;;7.60;85.60;;;;;;5078039;28;20283;-77
2022/02/28 02:16:33;;;;;;;;;;;7.60;85.40;;;;;;5077966;28;20335;-77
2022/02/28 02:18:59;;;;;;;;;;;7.60;85.00;;;;;;5060124;28;19916;-77
2022/02/28 02:21:24;;;;;;;;;;;7.60;85.30;;;;;;5059436;28;19919;-77
2022/02/28 02:23:50;;;;;;;;;;;7.60;85.50;;;;;;5077621;28;19908;-77
2022/02/28 02:26:16;;;;;;;;;;;7.60;85.90;;;;;;5077840;28;19971;-77
2022/02/28 02:28:42;;;;;;;;;;;7.60;86.70;;;;;;5077882;28;20326;-77
2022/02/28 02:31:08;;;;;;;;;;;7.60;86.60;;;;;;5077602;28;19917;-77
2022/02/28 02:33:34;;;;;;;;;;;7.60;86.60;;;;;;5059894;28;19909;-77
2022/02/28 02:36:02;;;;;;;;;;;7.60;86.30;;;;;;5077522;28;20455;-77
2022/02/28 02:38:28;;;;;;;;;;;7.60;86.20;;;;;;5077379;28;19952;-77
2022/02/28 02:40:54;;;;;;;;;;;7.60;86.50;;;;;;5077165;28;19908;-77
2022/02/28 02:43:20;;;;;;;;;;;7.60;86.00;;;;;;5077490;28;19917;-77
2022/02/28 02:45:46;;;;;;;;;;;7.60;85.50;;;;;;5046115;28;20570;-77
2022/02/28 02:48:18;;;;;;;;;;;7.60;85.10;;;;;;5059836;28;19908;-77
2022/02/28 02:50:44;;;;;;;;;;;7.60;85.30;;;;;;5077458;28;19909;-77
2022/02/28 02:53:10;;;;;;;;;;;7.60;85.30;;;;;;5059283;28;19912;-77
2022/02/28 02:55:35;;;;;;;;;;;7.60;85.20;;;;;;5077253;28;19909;-77
2022/02/28 02:58:01;;;;;;;;;;;7.60;84.90;;;;;;5077486;28;19915;-77
2022/02/28 03:00:27;;;;;;;;;;;7.70;84.80;;;;;;5080446;28;19956;-77
2022/02/28 03:02:53;;;;;;;;;;;7.60;84.30;;;;;;5081151;28;19908;-76
2022/02/28 03:05:19;;;;;;;;;;;7.60;84.00;;;;;;5081029;28;19934;-77
2022/02/28 03:07:44;;;;;;;;;;;7.70;84.20;;;;;;5080949;28;20287;-76
2022/02/28 03:10:10;;;;;;;;;;;7.70;84.90;;;;;;5063181;28;19919;-77
2022/02/28 03:12:36;;;;;;;;;;;7.70;84.90;;;;;;5080995;28;19920;-77
2022/02/28 03:15:02;;;;;;;;;;;7.70;84.70;;;;;;5081020;28;19927;-77
2022/02/28 03:17:28;;;;;;;;;;;7.70;84.30;;;;;;5081050;28;20367;-77
2022/02/28 03:19:53;;;;;;;;;;;7.70;84.40;;;;;;5080927;28;19943;-76
2022/02/28 03:22:19;;;;;;;;;;;7.60;84.60;;;;;;5080590;28;19909;-76
2022/02/28 03:24:45;;;;;;;;;;;7.70;84.60;;;;;;5080646;28;19913;-76
2022/02/28 03:27:10;;;;;;;;;;;7.70;84.90;;;;;;5080961;28;19908;-77
2022/02/28 03:29:36;;;;;;;;;;;7.70;84.80;;;;;;5080622;28;20337;-76
2022/02/28 03:32:02;;;;;;;;;;;7.70;85.40;;;;;;5080906;28;20402;-76
2022/02/28 03:34:28;;;;;;;;;;;7.70;86.40;;;;;;5080443;28;19931;-76
2022/02/28 03:36:53;;;;;;;;;;;7.70;86.30;;;;;;5080538;28;19913;-76
2022/02/28 03:39:19;;;;;;;;;;;7.70;86.20;;;;;;5080201;28;20406;-76
2022/02/28 03:41:45;;;;;;;;;;;7.70;86.00;;;;;;5080926;28;20348;-76
2022/02/28 03:44:10;;;;;;;;;;;7.60;86.40;;;;;;5078914;28;20371;-76
2022/02/28 03:46:36;;;;;;;;;;;7.60;87.10;;;;;;5068636;28;20270;-76
2022/02/28 03:49:02;;;;;;;;;;;7.60;87.80;;;;;;5080456;28;19932;-77
2022/02/28 03:51:28;;;;;;;;;;;7.60;87.90;;;;;;5080060;28;19931;-77
2022/02/28 03:53:53;;;;;;;;;;;7.50;87.50;;;;;;5080188;28;19958;-77
2022/02/28 03:56:19;;;;;;;;;;;7.60;88.00;;;;;;5080392;28;19958;-77
2022/02/28 03:58:45;;;;;;;;;;;7.50;88.40;;;;;;5080176;28;20283;-76
2022/02/28 04:01:10;;;;;;;;;;;7.50;89.00;;;;;;5062230;28;20291;-77
2022/02/28 04:03:36;;;;;;;;;;;7.50;89.60;;;;;;5079859;28;19912;-77
2022/02/28 04:06:02;;;;;;;;;;;7.50;90.10;;;;;;5062088;28;19909;-77
2022/02/28 04:08:27;;;;;;;;;;;7.40;90.40;;;;;;5079666;28;19909;-77
2022/02/28 04:10:53;;;;;;;;;;;7.40;90.70;;;;;;5078885;28;19943;-77
2022/02/28 04:13:19;;;;;;;;;;;7.40;91.00;;;;;;5080021;28;19913;-77
2022/02/28 04:15:44;;;;;;;;;;;7.40;91.00;;;;;;5080266;28;19909;-77
2022/02/28 04:18:10;;;;;;;;;;;7.40;91.20;;;;;;5079938;28;19908;-77
2022/02/28 04:20:36;;;;;;;;;;;7.40;91.20;;;;;;5079959;28;19916;-77
2022/02/28 04:23:02;;;;;;;;;;;7.40;91.30;;;;;;5079481;28;19909;-77
2022/02/28 04:25:27;;;;;;;;;;;7.40;91.20;;;;;;5079719;28;19999;-77
2022/02/28 04:27:53;;;;;;;;;;;7.40;91.30;;;;;;5061597;28;19962;-77
2022/02/28 04:30:20;;;;;;;;;;;7.30;91.30;;;;;;5079763;28;19908;-76
2022/02/28 04:32:45;;;;;;;;;;;7.30;91.40;;;;;;5061299;28;19912;-76
2022/02/28 04:35:11;;;;;;;;;;;7.30;91.30;;;;;;5061637;28;20014;-77
2022/02/28 04:37:37;;;;;;;;;;;7.30;91.10;;;;;;5079106;28;19958;-77
2022/02/28 04:40:03;;;;;;;;;;;7.20;91.20;;;;;;5079400;28;19912;-77
2022/02/28 04:42:28;;;;;;;;;;;7.20;91.20;;;;;;5079191;28;19913;-76
2022/02/28 04:44:54;;;;;;;;;;;7.10;91.40;;;;;;5071832;28;19921;-77
2022/02/28 04:47:20;;;;;;;;;;;7.10;91.40;;;;;;5073294;28;20359;-77
2022/02/28 04:49:45;;;;;;;;;;;7.10;91.50;;;;;;5079318;28;20521;-76
2022/02/28 04:52:11;;;;;;;;;;;7.10;91.70;;;;;;5060694;28;19966;-77
2022/02/28 04:54:37;;;;;;;;;;;7.10;91.70;;;;;;5061214;28;20283;-76
2022/02/28 04:57:03;;;;;;;;;;;7.10;91.90;;;;;;5061026;28;19908;-77
2022/02/28 04:59:28;;;;;;;;;;;7.10;91.90;;;;;;5061420;28;19908;-77
2022/02/28 05:01:54;;;;;;;;;;;7.10;91.90;;;;;;5061205;28;19909;-77
2022/02/28 05:04:20;;;;;;;;;;;7.10;92.10;;;;;;5060777;28;19958;-77
2022/02/28 05:06:45;;;;;;;;;;;7.10;91.90;;;;;;5060872;28;19908;-76
2022/02/28 05:09:11;;;;;;;;;;;7.10;91.80;;;;;;5079057;28;20386;-77
2022/02/28 05:11:36;;;;;;;;;;;7.10;91.60;;;;;;5078776;28;19916;-77
2022/02/28 05:14:02;;;;;;;;;;;7.10;91.40;;;;;;5078797;28;19909;-77
2022/02/28 05:16:28;;;;;;;;;;;7.10;91.50;;;;;;5078605;28;19908;-77
2022/02/28 05:18:53;;;;;;;;;;;7.10;91.70;;;;;;5078850;28;19992;-77
2022/02/28 05:21:19;;;;;;;;;;;7.10;91.60;;;;;;5078192;28;19908;-76
2022/02/28 05:23:45;;;;;;;;;;;7.20;91.60;;;;;;5078530;28;19969;-76
2022/02/28 05:26:10;;;;;;;;;;;7.20;91.50;;;;;;5078244;28;19990;-76
2022/02/28 05:28:36;;;;;;;;;;;7.20;91.50;;;;;;5078788;28;20058;-76
2022/02/28 05:31:02;;;;;;;;;;;7.20;91.60;;;;;;5078292;28;19962;-76
2022/02/28 05:33:27;;;;;;;;;;;7.20;91.50;;;;;;5078256;28;19912;-76
2022/02/28 05:35:53;;;;;;;;;;;7.20;91.40;;;;;;5078310;28;19909;-76
2022/02/28 05:38:18;;;;;;;;;;;7.20;91.40;;;;;;5078208;28;20359;-76
2022/02/28 05:40:46;;;;;;;;;;;7.30;91.50;;;;;;5060264;28;19972;-76
2022/02/28 05:43:12;;;;;;;;;;;7.30;91.60;;;;;;5078334;28;20387;-76
2022/02/28 05:45:38;;;;;;;;;;;7.30;91.70;;;;;;5064532;28;19943;-76
2022/02/28 05:48:04;;;;;;;;;;;7.30;91.70;;;;;;5078464;28;19908;-76
2022/02/28 05:50:30;;;;;;;;;;;7.30;91.80;;;;;;5060406;28;19908;-76
2022/02/28 05:52:56;;;;;;;;;;;7.30;91.80;;;;;;5046299;28;20385;-76
2022/02/28 05:55:21;;;;;;;;;;;7.30;91.90;;;;;;5077827;28;19908;-76
2022/02/28 05:57:48;;;;;;;;;;;7.30;91.90;;;;;;5078252;28;19931;-76
2022/02/28 06:00:14;;;;;;;;;;;7.30;91.70;;;;;;5059859;28;19954;-76
2022/02/28 06:02:40;;;;;;;;;;;7.30;91.50;;;;;;5078124;28;19915;-75
2022/02/28 06:05:06;;;;;;;;;;;7.30;91.50;;;;;;5077608;28;19980;-73
2022/02/28 06:07:31;;;;;;;;;;;7.30;91.50;;;;;;5077731;28;19908;-83
2022/02/28 06:09:57;;;;;;;;;;;7.30;91.60;;;;;;5077659;28;19915;-77
2022/02/28 06:12:22;;;;;;;;;;;7.30;91.70;;;;;;5078046;28;20364;-77
2022/02/28 06:14:48;;;;;;;;;;;7.30;91.80;;;;;;5077635;28;19909;-77
2022/02/28 06:17:14;;;;;;;;;;;7.30;91.90;;;;;;5077887;28;19908;-77
2022/02/28 06:19:40;;;;;;;;;;;7.20;91.90;;;;;;5077863;28;19909;-77
2022/02/28 06:22:06;;;;;;;;;;;7.20;91.90;;;;;;5077732;28;19908;-76
2022/02/28 06:24:31;;;;;;;;;;;7.20;92.10;;;;;;5059462;28;19908;-76
2022/02/28 06:26:57;;;;;;;;;;;7.20;92.10;;;;;;5077866;28;19908;-76
2022/02/28 06:29:23;;;;;;;;;;;7.20;92.10;;;;;;5077448;28;20330;-77
2022/02/28 06:31:48;;;;;;;;;;;7.20;92.10;;;;;;5059609;28;19912;-77
2022/02/28 06:34:14;;;;;;;;;;;7.20;92.00;;;;;;5060526;28;19908;-77
2022/02/28 06:36:40;;;;;;;;;;;7.20;92.10;;;;;;5081901;28;19912;-76
2022/02/28 06:39:07;;;;;;;;;;;7.20;92.10;;;;;;5063643;28;19993;-78
2022/02/28 06:41:33;;;;;;;;;;;7.20;92.10;;;;;;5063857;28;20386;-76
2022/02/28 06:43:59;;;;;;;;;;;7.20;92.20;;;;;;5081282;28;19920;-78
2022/02/28 06:46:24;;;;;;;;;;;7.30;92.40;;;;;;5068117;28;19923;-75
2022/02/28 06:48:50;;;;;;;;;;;7.20;92.60;;;;;;5081706;28;19908;-78
2022/02/28 06:51:16;;;;;;;;;;;7.20;92.20;;;;;;5081306;28;20808;-75
2022/02/28 06:53:42;;;;;;;;;;;7.30;92.20;;;;;;5081263;28;19958;-74
2022/02/28 06:56:08;;;;;;;;;;;7.30;92.20;;;;;;5081276;28;20260;-74
2022/02/28 06:58:34;;;;;;;;;;;7.30;92.30;;;;;;5081489;28;20354;-75
2022/02/28 07:01:00;;;;;;;;;;;7.30;92.30;;;;;;5081143;28;19931;-75
2022/02/28 07:03:25;;;;;;;;;;;7.30;92.30;;;;;;5081031;28;19980;-74
2022/02/28 07:05:52;;;;;;;;;;;7.30;92.70;;;;;;5081102;28;19908;-74
2022/02/28 07:08:19;;;;;;;;;;;7.30;92.60;;;;;;5080907;28;19915;-75
2022/02/28 07:10:45;;;;;;;;;;;7.30;92.50;;;;;;5066683;28;19976;-74
2022/02/28 07:13:12;;;;;;;;;;;7.30;92.50;;;;;;5081016;28;20293;-74
2022/02/28 07:15:41;;;;;;;;;;;7.30;92.60;;;;;;5067902;28;19999;-75
2022/02/28 07:18:07;;;;;;;;;;;7.30;92.60;;;;;;5080885;28;19919;-74
2022/02/28 07:20:33;;;;;;;;;;;7.30;92.80;;;;;;5081211;28;20406;-74
2022/02/28 07:22:59;;;;;;;;;;;7.30;92.70;;;;;;5080505;28;19912;-74
2022/02/28 07:25:24;;;;;;;;;;;7.30;92.70;;;;;;5062708;28;19987;-74
2022/02/28 07:27:50;;;;;;;;;;;7.40;92.80;;;;;;5080669;28;19993;-74
2022/02/28 07:30:16;;;;;;;;;;;7.40;92.90;;;;;;5081028;28;19908;-74
2022/02/28 07:32:41;;;;;;;;;;;7.40;92.70;;;;;;5080548;28;19913;-74
2022/02/28 07:35:07;;;;;;;;;;;7.40;92.70;;;;;;5080844;28;19958;-74
2022/02/28 07:37:35;;;;;;;;;;;7.40;92.70;;;;;;5080012;28;19908;-75
2022/02/28 07:40:01;;;;;;;;;;;7.50;92.80;;;;;;5062239;28;19908;-75
2022/02/28 07:42:27;;;;;;;;;;;7.50;92.70;;;;;;5080354;28;20345;-75
2022/02/28 07:44:52;;;;;;;;;;;7.50;92.70;;;;;;5073061;28;19964;-75
2022/02/28 07:47:18;;;;;;;;;;;7.50;92.60;;;;;;5074047;28;19916;-74
2022/02/28 07:49:44;;;;;;;;;;;7.60;92.80;;;;;;5080578;28;19908;-74
2022/02/28 07:52:09;;;;;;;;;;;7.60;93.00;;;;;;5062108;28;19936;-75
2022/02/28 07:54:35;;;;;;;;;;;7.70;92.80;;;;;;5080445;28;19916;-74
2022/02/28 07:57:01;;;;;;;;;;;7.70;92.60;;;;;;5062167;28;19908;-74
2022/02/28 07:59:26;;;;;;;;;;;7.70;92.40;;;;;;5080374;28;20298;-74
2022/02/28 08:01:52;;;;;;;;;;;7.70;92.20;;;;;;5080273;28;20363;-75
2022/02/28 08:04:17;;;;;;;;;;;7.70;92.10;;;;;;5079987;28;19915;-75
2022/02/28 08:06:43;;;;;;;;;;;7.80;91.90;;;;;;5079544;28;19999;-74
2022/02/28 08:09:09;;;;;;;;;;;7.80;91.90;;;;;;5080102;28;19958;-74
2022/02/28 08:11:35;;;;;;;;;;;7.80;92.20;;;;;;5061807;28;19909;-74
2022/02/28 08:14:01;;;;;;;;;;;7.80;92.40;;;;;;5079904;28;19938;-74
2022/02/28 08:16:27;;;;;;;;;;;7.80;92.30;;;;;;5079860;28;19944;-75
2022/02/28 08:18:53;;;;;;;;;;;7.80;92.20;;;;;;5061899;28;19908;-74
2022/02/28 08:21:18;;;;;;;;;;;7.80;92.40;;;;;;5061402;28;19908;-74
2022/02/28 08:23:44;;;;;;;;;;;7.90;92.60;;;;;;5079846;28;20295;-75
2022/02/28 08:26:09;;;;;;;;;;;7.90;92.30;;;;;;5079513;28;19912;-74
2022/02/28 08:28:35;;;;;;;;;;;7.90;92.20;;;;;;5080000;28;20322;-74
2022/02/28 08:31:01;;;;;;;;;;;7.90;92.10;;;;;;5079491;28;20003;-74
2022/02/28 08:33:27;;;;;;;;;;;7.90;92.20;;;;;;5079479;28;20468;-74
2022/02/28 08:35:52;;;;;;;;;;;8.00;92.00;;;;;;5079491;28;19916;-74
2022/02/28 08:38:18;;;;;;;;;;;8.00;91.70;;;;;;5079340;28;19909;-75
2022/02/28 08:40:44;;;;;;;;;;;8.10;91.60;;;;;;5079080;28;20396;-74
2022/02/28 08:43:10;;;;;;;;;;;8.20;91.40;;;;;;5061595;28;19908;-75
2022/02/28 08:45:36;;;;;;;;;;;8.20;91.30;;;;;;5065885;28;19925;-74
2022/02/28 08:48:02;;;;;;;;;;;8.30;91.40;;;;;;5088112;28;20427;-75
2022/02/28 08:50:27;;;;;;;;;;;8.30;91.50;;;;;;5072568;28;20256;-75
2022/02/28 08:52:53;;;;;;;;;;;8.30;91.30;;;;;;5079035;28;19934;-75
2022/02/28 08:55:19;;;;;;;;;;;8.40;91.40;;;;;;5078178;28;19974;-75
2022/02/28 08:57:44;;;;;;;;;;;8.40;91.40;;;;;;5077163;28;19909;-75
2022/02/28 09:00:10;;;;;;;;;;;8.40;91.40;;;;;;5060709;28;19909;-75
2022/02/28 09:02:37;;;;;;;;;;;8.50;91.40;;;;;;5078951;28;20007;-75
2022/02/28 09:05:03;;;;;;;;;;;8.50;91.40;;;;;;5078640;28;19910;-75
2022/02/28 09:07:28;;;;;;;;;;;8.50;91.40;;;;;;5078752;28;19916;-75
2022/02/28 09:09:55;;;;;;;;;;;8.60;91.40;;;;;;5066042;28;19909;-75
2022/02/28 09:12:20;;;;;;;;;;;8.60;91.40;;;;;;5073128;28;19920;-75
2022/02/28 09:14:46;;;;;;;;;;;8.60;91.50;;;;;;5078369;28;19995;-74
2022/02/28 09:17:11;;;;;;;;;;;8.60;91.50;;;;;;5076235;28;20527;-75
2022/02/28 09:19:37;;;;;;;;;;;8.60;91.50;;;;;;5057797;28;20367;-73
2022/02/28 09:22:05;;;;;;;;;;;8.60;91.50;;;;;;5060370;28;20371;-72
2022/02/28 09:24:33;;;;;;;;;;;8.70;91.70;;;;;;5073238;28;19999;-74
2022/02/28 09:27:03;;;;;;;;;;;8.70;91.50;;;;;;5073349;28;19916;-74
2022/02/28 09:29:31;;;;;;;;;;;8.70;91.40;;;;;;5078202;28;19909;-74
2022/02/28 09:31:57;;;;;;;;;;;8.70;91.30;;;;;;5078041;28;20276;-75
2022/02/28 09:34:23;;;;;;;;;;;8.80;91.30;;;;;;5078053;28;20074;-75
2022/02/28 09:36:51;;;;;;;;;;;8.80;91.20;;;;;;5077883;28;20042;-74
2022/02/28 09:39:19;;;;;;;;;;;8.80;91.10;;;;;;5075141;28;19920;-74
2022/02/28 09:41:46;;;;;;;;;;;8.90;91.00;;;;;;5076420;28;19995;-74
2022/02/28 09:44:14;;;;;;;;;;;8.90;90.90;;;;;;5074054;28;19920;-75
2022/02/28 09:46:42;;;;;;;;;;;9.00;90.80;;;;;;5077063;28;19909;-75
2022/02/28 09:49:08;;;;;;;;;;;9.00;90.70;;;;;;5077954;28;20375;-75
2022/02/28 09:51:34;;;;;;;;;;;9.10;90.90;;;;;;5077751;28;19908;-75
2022/02/28 09:54:00;;;;;;;;;;;9.10;90.90;;;;;;5077544;28;19908;-74
2022/02/28 09:56:25;;;;;;;;;;;9.10;90.90;;;;;;5078009;28;19908;-74
2022/02/28 09:58:51;;;;;;;;;;;9.20;91.10;;;;;;5077777;28;19916;-74
2022/02/28 10:01:17;;;;;;;;;;;9.20;91.10;;;;;;5078000;28;19985;-74
2022/02/28 10:03:42;;;;;;;;;;;9.20;91.20;;;;;;5073212;28;19912;-73
2022/02/28 10:06:08;;;;;;;;;;;9.20;91.10;;;;;;5054147;28;19909;-75
2022/02/28 10:08:50;;;;;;;;;;;9.30;91.10;;;;;;5073670;28;20336;-74
2022/02/28 10:11:30;;;;;;;;;;;9.30;91.00;;;;;;5077349;28;19968;-74
2022/02/28 10:13:57;;;;;;;;;;;9.40;91.00;;;;;;5077877;28;19912;-75
2022/02/28 10:16:30;;;;;;;;;;;9.40;91.20;;;;;;5077707;28;19909;-75
2022/02/28 10:18:56;;;;;;;;;;;9.40;91.20;;;;;;5078153;28;19909;-74
2022/02/28 10:21:34;;;;;;;;;;;9.50;91.40;;;;;;5077345;28;19908;-75
2022/02/28 10:24:00;;;;;;;;;;;9.50;91.50;;;;;;5077646;28;19909;-75
2022/02/28 10:26:25;;;;;;;;;;;9.50;91.60;;;;;;5059519;28;19908;-75
2022/02/28 10:29:03;;;;;;;;;;;9.60;91.50;;;;;;5077885;28;19908;-75
2022/02/28 10:31:29;;;;;;;;;;;9.60;91.30;;;;;;5058982;28;20287;-74
2022/02/28 10:33:55;;;;;;;;;;;9.60;91.30;;;;;;5077630;28;19908;-74
2022/02/28 10:36:23;;;;;;;;;;;9.60;91.30;;;;;;5077445;28;19908;-75
2022/02/28 10:38:50;;;;;;;;;;;9.70;91.30;;;;;;5077654;28;20283;-75
2022/02/28 10:41:21;;;;;;;;;;;9.80;91.30;;;;;;5064210;28;19909;-75
2022/02/28 10:43:47;;;;;;;;;;;9.80;91.20;;;;;;5059372;28;19951;-75
2022/02/28 10:46:26;;;;;;;;;;;9.90;91.20;;;;;;5063011;28;19955;-74
2022/02/28 10:49:07;;;;;;;;;;;10.00;91.40;;;;;;5065684;28;19909;-75
2022/02/28 10:51:45;;;;;;;;;;;10.00;91.40;;;;;;5064334;28;20300;-74
2022/02/28 10:54:20;;;;;;;;;;;10.10;91.60;;;;;;5074857;28;19916;-75
2022/02/28 10:56:47;;;;;;;;;;;10.10;91.30;;;;;;5070184;28;19912;-74
2022/02/28 10:59:13;;;;;;;;;;;10.20;91.10;;;;;;5076881;28;20006;-76
2022/02/28 11:01:39;;;;;;;;;;;10.20;91.00;;;;;;5074972;28;19909;-71
2022/02/28 11:04:07;;;;;;;;;;;10.30;91.50;;;;;;5076834;28;20298;-69
2022/02/28 11:06:34;;;;;;;;;;;10.50;91.40;;;;;;5058824;28;20521;-71
2022/02/28 11:09:00;;;;;;;;;;;10.60;91.40;;;;;;5077101;28;19913;-69
2022/02/28 11:11:25;;;;;;;;;;;10.70;91.30;;;;;;5076981;28;19909;-75
2022/02/28 11:13:51;;;;;;;;;;;10.80;91.30;;;;;;5056679;28;19913;-78
2022/02/28 11:16:17;;;;;;;;;;;10.80;91.20;;;;;;5076474;28;19952;-78
2022/02/28 11:18:43;;;;;;;;;;;10.90;91.20;;;;;;5061273;28;19909;-78
2022/02/28 11:21:09;;;;;;;;;;;10.90;91.00;;;;;;5077006;28;19908;-78
2022/02/28 11:23:38;;;;;;;;;;;11.00;90.90;;;;;;5080420;28;19999;-80
2022/02/28 11:26:04;;;;;;;;;;;11.00;90.70;;;;;;5080203;28;20378;-78
2022/02/28 11:28:30;;;;;;;;;;;11.10;90.70;;;;;;5080039;28;19909;-77
2022/02/28 11:31:03;;;;;;;;;;;11.10;90.60;;;;;;5080116;28;19915;-82
2022/02/28 11:33:29;;;;;;;;;;;11.20;90.70;;;;;;5080125;28;19919;-81
2022/02/28 11:35:55;;;;;;;;;;;11.10;90.40;;;;;;5080233;28;19909;-79
2022/02/28 11:38:23;;;;;;;;;;;11.10;90.30;;;;;;5080304;28;19960;-78
2022/02/28 11:40:48;;;;;;;;;;;11.10;90.30;;;;;;5067460;28;19978;-81
2022/02/28 11:43:22;;;;;;;;;;;11.10;90.10;;;;;;5080398;28;19909;-81
2022/02/28 11:45:52;;;;;;;;;;;11.10;90.10;;;;;;5070863;28;19928;-80
2022/02/28 11:48:18;;;;;;;;;;;11.10;90.00;;;;;;5080144;28;19915;-80
2022/02/28 11:50:51;;;;;;;;;;;11.10;90.00;;;;;;5080019;28;19909;-80
2022/02/28 11:53:35;;;;;;;;;;;11.10;90.00;;;;;;5079246;28;19944;-80
2022/02/28 11:56:02;;;;;;;;;;;11.10;90.20;;;;;;5073520;28;19927;-80
2022/02/28 11:58:28;;;;;;;;;;;11.10;90.10;;;;;;5080095;28;19961;-81
2022/02/28 12:01:22;;;;;;;;;;;11.10;89.90;;;;;;5079830;28;19995;-81
2022/02/28 12:04:11;;;;;;;;;;;11.10;90.10;;;;;;5022600;28;20401;-81
2022/02/28 12:06:53;;;;;;;;;;;11.10;90.00;;;;;;5057282;28;19909;-81
2022/02/28 12:09:37;;;;;;;;;;;11.20;89.80;;;;;;5071096;28;19908;-81
2022/02/28 12:12:15;;;;;;;;;;;11.20;89.70;;;;;;5079660;28;19983;-81
2022/02/28 12:14:56;;;;;;;;;;;11.30;90.10;;;;;;5079590;28;19962;-81
2022/02/28 12:17:40;;;;;;;;;;;11.30;90.00;;;;;;5070439;28;19951;-81
2022/02/28 12:20:18;;;;;;;;;;;11.40;90.00;;;;;;5061379;28;19915;-81
2022/02/28 12:22:53;;;;;;;;;;;11.40;90.00;;;;;;5079095;28;19908;-81
2022/02/28 12:25:30;;;;;;;;;;;11.40;89.80;;;;;;5069648;28;20268;-81
2022/02/28 12:27:56;;;;;;;;;;;11.40;90.00;;;;;;5079360;28;19959;-81
2022/02/28 12:30:37;;;;;;;;;;;11.40;89.90;;;;;;5079737;28;19908;-81
2022/02/28 12:33:03;;;;;;;;;;;11.50;90.00;;;;;;5077689;28;19948;-81
2022/02/28 12:35:36;;;;;;;;;;;11.50;89.60;;;;;;5079503;28;19908;-81
2022/02/28 12:38:02;;;;;;;;;;;11.60;89.90;;;;;;5079065;28;20455;-80
2022/02/28 12:40:28;;;;;;;;;;;11.60;89.50;;;;;;5066798;28;20014;-80
2022/02/28 12:42:57;;;;;;;;;;;11.70;89.70;;;;;;5078757;28;20394;-80
2022/02/28 12:45:25;;;;;;;;;;;11.80;89.80;;;;;;5069737;28;20383;-80
2022/02/28 12:47:51;;;;;;;;;;;11.90;89.90;;;;;;5081206;28;19984;-80
2022/02/28 12:50:18;;;;;;;;;;;12.00;89.50;;;;;;5060998;28;19908;-82
2022/02/28 12:52:50;;;;;;;;;;;12.00;89.00;;;;;;5078364;28;19920;-80
2022/02/28 12:55:18;;;;;;;;;;;12.00;88.80;;;;;;5073225;28;20464;-81
2022/02/28 12:57:47;;;;;;;;;;;12.10;88.70;;;;;;5068203;28;19908;-81
2022/02/28 13:00:12;;;;;;;;;;;12.10;88.60;;;;;;5078869;28;21361;-82
2022/02/28 13:02:38;;;;;;;;;;;12.20;88.40;;;;;;5060465;28;19908;-82
2022/02/28 13:05:04;;;;;;;;;;;12.10;88.10;;;;;;5078319;28;19915;-82
2022/02/28 13:07:31;;;;;;;;;;;12.20;88.20;;;;;;5078665;28;20390;-81
2022/02/28 13:09:57;;;;;;;;;;;12.20;88.40;;;;;;5078396;28;19912;-81
2022/02/28 13:12:27;;;;;;;;;;;12.20;87.90;;;;;;5078687;28;19912;-83
2022/02/28 13:14:54;;;;;;;;;;;12.30;88.30;;;;;;5078355;28;19920;-83
2022/02/28 13:17:20;;;;;;;;;;;12.20;88.20;;;;;;5078461;28;20287;-83
2022/02/28 13:19:46;;;;;;;;;;;12.30;88.30;;;;;;5078087;28;19912;-85
2022/02/28 13:22:19;;;;;;;;;;;12.30;88.20;;;;;;5078379;28;20375;-81
2022/02/28 13:24:44;;;;;;;;;;;12.30;88.00;;;;;;5078105;28;20003;-82
2022/02/28 13:27:13;;;;;;;;;;;12.30;87.90;;;;;;5078424;28;19947;-81
2022/02/28 13:29:39;;;;;;;;;;;12.30;87.60;;;;;;5059751;28;19908;-82
2022/02/28 13:32:09;;;;;;;;;;;12.30;87.30;;;;;;5077095;28;19913;-81
2022/02/28 13:34:38;;;;;;;;;;;12.20;87.10;;;;;;5078030;28;19908;-80
2022/02/28 13:37:05;;;;;;;;;;;12.30;87.70;;;;;;5077895;28;19908;-80
2022/02/28 13:39:33;;;;;;;;;;;12.30;87.50;;;;;;5077730;28;19952;-80
2022/02/28 13:42:06;;;;;;;;;;;12.30;87.70;;;;;;5078231;28;19916;-80
2022/02/28 13:44:35;;;;;;;;;;;12.30;87.30;;;;;;5074914;28;20349;-81
2022/02/28 13:47:02;;;;;;;;;;;12.30;87.60;;;;;;5053361;28;19920;-79
2022/02/28 13:49:34;;;;;;;;;;;12.30;87.30;;;;;;5077898;28;19958;-79
2022/02/28 13:51:59;;;;;;;;;;;12.40;87.30;;;;;;5077485;28;19962;-80
2022/02/28 13:54:25;;;;;;;;;;;12.40;87.00;;;;;;5077752;28;19909;-82
2022/02/28 13:56:51;;;;;;;;;;;12.50;87.10;;;;;;5072504;28;20592;-81
2022/02/28 13:59:16;;;;;;;;;;;12.50;86.80;;;;;;5077873;28;19913;-81
2022/02/28 14:01:50;;;;;;;;;;;12.50;86.50;;;;;;5077448;28;20405;-81
2022/02/28 14:04:16;;;;;;;;;;;12.50;86.40;;;;;;5074084;28;19915;-81
2022/02/28 14:06:42;;;;;;;;;;;12.50;86.00;;;;;;5077280;28;19916;-81
2022/02/28 14:09:08;;;;;;;;;;;12.50;86.00;;;;;;5077795;28;20467;-81
2022/02/28 14:11:35;;;;;;;;;;;12.50;86.20;;;;;;5077561;28;20333;-81
2022/02/28 14:14:00;;;;;;;;;;;12.50;85.80;;;;;;5077712;28;20327;-82
2022/02/28 14:16:34;;;;;;;;;;;12.50;85.80;;;;;;5077268;28;19908;-82
2022/02/28 14:19:05;;;;;;;;;;;12.50;85.90;;;;;;5077688;28;19908;-81
2022/02/28 14:21:39;;;;;;;;;;;12.50;85.80;;;;;;5076987;28;19966;-81
2022/02/28 14:24:06;;;;;;;;;;;12.60;86.20;;;;;;5059314;28;19974;-82